sensor_id;sensor_type;location;lat;lon;timestamp;pressure;altitude;pressure_sealevel;temperature;humidity
39954;BME280;25631;51.516;-0.470;2022-07-29T00:01:15;101609.12;;;18.45;30.97
39954;BME280;25631;51.516;-0.470;2022-07-29T00:03:51;101612.59;;;18.44;31.06
39954;BME280;25631;51.516;-0.470;2022-07-29T00:06:28;101613.84;;;18.27;31.23
39954;BME280;25631;51.516;-0.470;2022-07-29T00:09:05;101608.75;;;18.33;31.35
39954;BME280;25631;51.516;-0.470;2022-07-29T00:11:41;101607.39;;;18.34;31.44
39954;BME280;25631;51.516;-0.470;2022-07-29T00:14:17;101608.40;;;17.89;31.47
39954;BME280;25631;51.516;-0.470;2022-07-29T00:16:54;101604.76;;;18.59;31.51
39954;BME280;25631;51.516;-0.470;2022-07-29T00:19:31;101598.24;;;18.12;31.44
39954;BME280;25631;51.516;-0.470;2022-07-29T00:22:07;101597.15;;;18.11;31.34
39954;BME280;25631;51.516;-0.470;2022-07-29T00:24:44;101598.61;;;18.46;31.33
39954;BME280;25631;51.516;-0.470;2022-07-29T00:27:22;101600.77;;;17.93;31.37
39954;BME280;25631;51.516;-0.470;2022-07-29T00:29:59;101598.33;;;18.13;31.45
39954;BME280;25631;51.516;-0.470;2022-07-29T00:32:35;101599.55;;;18.11;31.52
39954;BME280;25631;51.516;-0.470;2022-07-29T00:35:12;101599.25;;;18.35;31.53
39954;BME280;25631;51.516;-0.470;2022-07-29T00:37:48;101598.72;;;18.30;31.62
39954;BME280;25631;51.516;-0.470;2022-07-29T00:40:24;101597.35;;;17.80;31.62
39954;BME280;25631;51.516;-0.470;2022-07-29T00:43:01;101593.70;;;18.31;31.60
39954;BME280;25631;51.516;-0.470;2022-07-29T00:45:37;101592.48;;;17.92;31.64
39954;BME280;25631;51.516;-0.470;2022-07-29T00:48:14;101588.63;;;18.39;31.65
39954;BME280;25631;51.516;-0.470;2022-07-29T00:50:50;101586.27;;;18.09;31.63
39954;BME280;25631;51.516;-0.470;2022-07-29T00:53:27;101586.11;;;18.34;31.69
39954;BME280;25631;51.516;-0.470;2022-07-29T00:56:04;101588.10;;;18.43;31.69
39954;BME280;25631;51.516;-0.470;2022-07-29T00:58:40;101588.71;;;18.18;31.73
39954;BME280;25631;51.516;-0.470;2022-07-29T01:01:17;101589.06;;;18.26;31.75
39954;BME280;25631;51.516;-0.470;2022-07-29T01:03:53;101588.20;;;18.15;31.90
39954;BME280;25631;51.516;-0.470;2022-07-29T01:06:30;101588.16;;;17.98;32.00
39954;BME280;25631;51.516;-0.470;2022-07-29T01:09:07;101584.82;;;17.79;32.04
39954;BME280;25631;51.516;-0.470;2022-07-29T01:11:45;101582.77;;;18.06;32.09
39954;BME280;25631;51.516;-0.470;2022-07-29T01:14:22;101580.37;;;17.98;32.29
39954;BME280;25631;51.516;-0.470;2022-07-29T01:17:02;101581.63;;;17.79;32.37
39954;BME280;25631;51.516;-0.470;2022-07-29T01:19:49;101585.08;;;17.90;32.54
39954;BME280;25631;51.516;-0.470;2022-07-29T01:22:35;101587.77;;;17.72;32.60
39954;BME280;25631;51.516;-0.470;2022-07-29T01:25:29;101585.81;;;17.79;32.64
39954;BME280;25631;51.516;-0.470;2022-07-29T01:31:00;101582.99;;;17.64;32.88
39954;BME280;25631;51.516;-0.470;2022-07-29T01:33:41;101580.57;;;17.73;32.92
39954;BME280;25631;51.516;-0.470;2022-07-29T01:36:29;101583.67;;;17.76;32.98
39954;BME280;25631;51.516;-0.470;2022-07-29T01:39:10;101585.54;;;17.79;33.11
39954;BME280;25631;51.516;-0.470;2022-07-29T01:41:53;101586.40;;;17.64;33.18
39954;BME280;25631;51.516;-0.470;2022-07-29T01:44:35;101585.36;;;17.46;33.26
39954;BME280;25631;51.516;-0.470;2022-07-29T01:47:21;101587.56;;;17.40;33.33
39954;BME280;25631;51.516;-0.470;2022-07-29T01:50:00;101591.25;;;17.26;33.43
39954;BME280;25631;51.516;-0.470;2022-07-29T01:52:43;101585.94;;;17.27;33.54
39954;BME280;25631;51.516;-0.470;2022-07-29T01:55:23;101582.60;;;17.31;33.62
39954;BME280;25631;51.516;-0.470;2022-07-29T01:58:03;101579.59;;;17.26;33.69
39954;BME280;25631;51.516;-0.470;2022-07-29T02:00:40;101582.64;;;17.52;33.74
39954;BME280;25631;51.516;-0.470;2022-07-29T02:03:18;101582.95;;;17.48;33.92
39954;BME280;25631;51.516;-0.470;2022-07-29T02:05:55;101580.88;;;17.08;34.02
39954;BME280;25631;51.516;-0.470;2022-07-29T02:08:33;101579.34;;;17.32;34.10
39954;BME280;25631;51.516;-0.470;2022-07-29T02:11:10;101578.84;;;17.49;34.11
39954;BME280;25631;51.516;-0.470;2022-07-29T02:13:47;101580.10;;;17.33;34.22
39954;BME280;25631;51.516;-0.470;2022-07-29T02:16:27;101580.47;;;17.23;34.21
39954;BME280;25631;51.516;-0.470;2022-07-29T02:19:06;101584.51;;;17.31;34.24
39954;BME280;25631;51.516;-0.470;2022-07-29T02:21:43;101586.86;;;17.31;34.26
39954;BME280;25631;51.516;-0.470;2022-07-29T02:24:22;101588.44;;;16.95;34.24
39954;BME280;25631;51.516;-0.470;2022-07-29T02:27:00;101587.70;;;16.86;34.26
39954;BME280;25631;51.516;-0.470;2022-07-29T02:29:38;101588.37;;;16.91;34.28
39954;BME280;25631;51.516;-0.470;2022-07-29T02:32:16;101589.42;;;17.18;34.28
39954;BME280;25631;51.516;-0.470;2022-07-29T02:34:54;101589.33;;;16.93;34.29
39954;BME280;25631;51.516;-0.470;2022-07-29T02:37:32;101586.38;;;17.06;34.32
39954;BME280;25631;51.516;-0.470;2022-07-29T02:40:11;101588.13;;;16.91;34.34
39954;BME280;25631;51.516;-0.470;2022-07-29T02:42:48;101590.86;;;16.89;34.37
39954;BME280;25631;51.516;-0.470;2022-07-29T02:45:25;101593.30;;;16.87;34.40
39954;BME280;25631;51.516;-0.470;2022-07-29T02:48:07;101596.60;;;16.73;34.44
39954;BME280;25631;51.516;-0.470;2022-07-29T02:50:49;101597.74;;;16.84;34.41
39954;BME280;25631;51.516;-0.470;2022-07-29T02:53:30;101597.61;;;16.64;34.49
39954;BME280;25631;51.516;-0.470;2022-07-29T02:56:12;101595.44;;;16.97;34.55
39954;BME280;25631;51.516;-0.470;2022-07-29T02:58:54;101593.00;;;16.78;34.65
39954;BME280;25631;51.516;-0.470;2022-07-29T03:01:32;101594.99;;;16.59;34.79
39954;BME280;25631;51.516;-0.470;2022-07-29T03:04:13;101595.67;;;16.51;34.83
39954;BME280;25631;51.516;-0.470;2022-07-29T03:06:51;101596.28;;;16.54;34.83
39954;BME280;25631;51.516;-0.470;2022-07-29T03:09:28;101596.41;;;16.68;34.89
39954;BME280;25631;51.516;-0.470;2022-07-29T03:12:06;101596.91;;;16.72;34.93
39954;BME280;25631;51.516;-0.470;2022-07-29T03:14:43;101596.81;;;16.52;35.06
39954;BME280;25631;51.516;-0.470;2022-07-29T03:17:21;101595.17;;;16.38;35.22
39954;BME280;25631;51.516;-0.470;2022-07-29T03:19:58;101595.92;;;16.41;35.25
39954;BME280;25631;51.516;-0.470;2022-07-29T03:22:39;101593.72;;;16.13;35.31
39954;BME280;25631;51.516;-0.470;2022-07-29T03:25:18;101594.91;;;16.14;35.41
39954;BME280;25631;51.516;-0.470;2022-07-29T03:27:54;101594.35;;;16.10;35.44
39954;BME280;25631;51.516;-0.470;2022-07-29T03:30:31;101594.45;;;16.03;35.49
39954;BME280;25631;51.516;-0.470;2022-07-29T03:33:08;101594.95;;;16.35;35.57
39954;BME280;25631;51.516;-0.470;2022-07-29T03:35:44;101596.03;;;16.18;35.59
39954;BME280;25631;51.516;-0.470;2022-07-29T03:38:23;101591.98;;;16.48;35.68
39954;BME280;25631;51.516;-0.470;2022-07-29T03:41:05;101586.83;;;15.83;35.72
39954;BME280;25631;51.516;-0.470;2022-07-29T03:43:42;101590.10;;;15.70;35.75
39954;BME280;25631;51.516;-0.470;2022-07-29T03:46:20;101591.44;;;15.98;35.76
39954;BME280;25631;51.516;-0.470;2022-07-29T03:49:01;101594.13;;;15.82;35.82
39954;BME280;25631;51.516;-0.470;2022-07-29T03:51:39;101597.94;;;15.84;35.80
39954;BME280;25631;51.516;-0.470;2022-07-29T03:54:15;101600.99;;;15.81;35.86
39954;BME280;25631;51.516;-0.470;2022-07-29T03:56:52;101600.95;;;15.78;35.85
39954;BME280;25631;51.516;-0.470;2022-07-29T03:59:32;101602.65;;;15.57;35.81
39954;BME280;25631;51.516;-0.470;2022-07-29T04:02:11;101600.92;;;15.88;35.80
39954;BME280;25631;51.516;-0.470;2022-07-29T04:04:47;101600.01;;;15.86;35.84
39954;BME280;25631;51.516;-0.470;2022-07-29T04:07:24;101600.71;;;16.11;35.89
39954;BME280;25631;51.516;-0.470;2022-07-29T04:10:00;101606.09;;;16.11;35.92
39954;BME280;25631;51.516;-0.470;2022-07-29T04:12:37;101607.01;;;15.99;35.93
39954;BME280;25631;51.516;-0.470;2022-07-29T04:15:13;101607.91;;;15.67;35.93
39954;BME280;25631;51.516;-0.470;2022-07-29T04:17:50;101609.04;;;15.97;35.93
39954;BME280;25631;51.516;-0.470;2022-07-29T04:20:26;101612.20;;;15.75;35.94
39954;BME280;25631;51.516;-0.470;2022-07-29T04:23:03;101610.02;;;15.85;35.94
39954;BME280;25631;51.516;-0.470;2022-07-29T04:25:40;101609.59;;;15.52;35.97
39954;BME280;25631;51.516;-0.470;2022-07-29T04:28:16;101609.28;;;15.49;36.00
39954;BME280;25631;51.516;-0.470;2022-07-29T04:30:53;101609.70;;;15.66;36.04
39954;BME280;25631;51.516;-0.470;2022-07-29T04:33:29;101609.98;;;16.02;36.08
39954;BME280;25631;51.516;-0.470;2022-07-29T04:36:06;101608.94;;;15.78;36.14
39954;BME280;25631;51.516;-0.470;2022-07-29T04:38:42;101610.48;;;15.54;36.17
39954;BME280;25631;51.516;-0.470;2022-07-29T04:41:19;101607.69;;;15.73;36.21
39954;BME280;25631;51.516;-0.470;2022-07-29T04:43:55;101603.58;;;15.48;36.28
39954;BME280;25631;51.516;-0.470;2022-07-29T04:46:32;101604.88;;;15.78;36.27
39954;BME280;25631;51.516;-0.470;2022-07-29T04:49:08;101603.51;;;15.89;36.24
39954;BME280;25631;51.516;-0.470;2022-07-29T04:51:44;101601.50;;;15.58;36.26
39954;BME280;25631;51.516;-0.470;2022-07-29T04:54:21;101602.52;;;15.77;36.27
39954;BME280;25631;51.516;-0.470;2022-07-29T04:56:57;101604.42;;;15.78;36.24
39954;BME280;25631;51.516;-0.470;2022-07-29T04:59:34;101603.38;;;15.66;36.31
39954;BME280;25631;51.516;-0.470;2022-07-29T05:02:10;101605.12;;;15.98;36.31
39954;BME280;25631;51.516;-0.470;2022-07-29T05:04:47;101606.04;;;15.57;36.36
39954;BME280;25631;51.516;-0.470;2022-07-29T05:07:23;101604.90;;;15.53;36.44
39954;BME280;25631;51.516;-0.470;2022-07-29T05:09:59;101602.87;;;15.67;36.41
39954;BME280;25631;51.516;-0.470;2022-07-29T05:12:36;101601.21;;;15.75;36.40
39954;BME280;25631;51.516;-0.470;2022-07-29T05:15:12;101602.69;;;15.76;36.45
39954;BME280;25631;51.516;-0.470;2022-07-29T05:17:49;101603.66;;;15.71;36.48
39954;BME280;25631;51.516;-0.470;2022-07-29T05:20:25;101607.72;;;15.87;36.52
39954;BME280;25631;51.516;-0.470;2022-07-29T05:23:02;101609.10;;;15.65;36.50
39954;BME280;25631;51.516;-0.470;2022-07-29T05:25:39;101610.67;;;15.53;36.52
39954;BME280;25631;51.516;-0.470;2022-07-29T05:28:15;101615.65;;;15.87;36.45
39954;BME280;25631;51.516;-0.470;2022-07-29T05:30:52;101617.01;;;16.00;36.48
39954;BME280;25631;51.516;-0.470;2022-07-29T05:33:28;101620.31;;;15.68;36.56
39954;BME280;25631;51.516;-0.470;2022-07-29T05:36:04;101620.09;;;15.86;36.63
39954;BME280;25631;51.516;-0.470;2022-07-29T05:38:41;101619.01;;;15.74;36.66
39954;BME280;25631;51.516;-0.470;2022-07-29T05:41:17;101622.16;;;15.94;36.66
39954;BME280;25631;51.516;-0.470;2022-07-29T05:43:54;101626.48;;;15.85;36.60
39954;BME280;25631;51.516;-0.470;2022-07-29T05:46:30;101629.50;;;16.02;36.60
39954;BME280;25631;51.516;-0.470;2022-07-29T05:49:07;101633.27;;;16.00;36.62
39954;BME280;25631;51.516;-0.470;2022-07-29T05:51:43;101633.58;;;16.11;36.56
39954;BME280;25631;51.516;-0.470;2022-07-29T05:54:19;101629.80;;;16.16;36.57
39954;BME280;25631;51.516;-0.470;2022-07-29T05:56:56;101630.34;;;16.20;36.58
39954;BME280;25631;51.516;-0.470;2022-07-29T05:59:35;101631.03;;;16.24;36.59
39954;BME280;25631;51.516;-0.470;2022-07-29T06:02:12;101630.13;;;16.35;36.61
39954;BME280;25631;51.516;-0.470;2022-07-29T06:04:49;101632.46;;;16.29;36.65
39954;BME280;25631;51.516;-0.470;2022-07-29T06:07:25;101635.56;;;16.45;36.68
39954;BME280;25631;51.516;-0.470;2022-07-29T06:10:02;101637.36;;;16.50;36.79
39954;BME280;25631;51.516;-0.470;2022-07-29T06:12:38;101637.46;;;16.20;36.81
39954;BME280;25631;51.516;-0.470;2022-07-29T06:15:15;101640.48;;;16.82;36.54
39954;BME280;25631;51.516;-0.470;2022-07-29T06:17:51;101642.08;;;16.85;36.56
39954;BME280;25631;51.516;-0.470;2022-07-29T06:20:28;101644.02;;;16.85;36.68
39954;BME280;25631;51.516;-0.470;2022-07-29T06:23:06;101648.30;;;16.87;36.73
39954;BME280;25631;51.516;-0.470;2022-07-29T06:25:42;101653.38;;;16.76;36.68
39954;BME280;25631;51.516;-0.470;2022-07-29T06:28:19;101657.05;;;16.79;36.73
39954;BME280;25631;51.516;-0.470;2022-07-29T06:30:55;101652.08;;;16.95;36.70
39954;BME280;25631;51.516;-0.470;2022-07-29T06:33:32;101648.50;;;17.30;36.67
39954;BME280;25631;51.516;-0.470;2022-07-29T06:36:08;101645.11;;;17.31;36.67
39954;BME280;25631;51.516;-0.470;2022-07-29T06:38:45;101641.53;;;16.76;36.67
39954;BME280;25631;51.516;-0.470;2022-07-29T06:41:21;101639.71;;;17.12;36.69
39954;BME280;25631;51.516;-0.470;2022-07-29T06:43:58;101635.75;;;17.28;36.71
39954;BME280;25631;51.516;-0.470;2022-07-29T06:46:34;101639.12;;;17.29;36.73
39954;BME280;25631;51.516;-0.470;2022-07-29T06:49:10;101639.10;;;17.71;36.73
39954;BME280;25631;51.516;-0.470;2022-07-29T06:51:47;101637.80;;;17.34;36.61
39954;BME280;25631;51.516;-0.470;2022-07-29T06:54:23;101638.66;;;17.55;36.68
39954;BME280;25631;51.516;-0.470;2022-07-29T06:56:59;101642.85;;;17.32;36.80
39954;BME280;25631;51.516;-0.470;2022-07-29T06:59:36;101645.24;;;17.63;36.72
39954;BME280;25631;51.516;-0.470;2022-07-29T07:02:12;101643.79;;;17.68;36.89
39954;BME280;25631;51.516;-0.470;2022-07-29T07:04:48;101647.62;;;17.67;36.90
39954;BME280;25631;51.516;-0.470;2022-07-29T07:07:25;101645.00;;;17.62;36.90
39954;BME280;25631;51.516;-0.470;2022-07-29T07:10:02;101647.51;;;17.67;36.96
39954;BME280;25631;51.516;-0.470;2022-07-29T07:12:38;101648.35;;;17.90;36.92
39954;BME280;25631;51.516;-0.470;2022-07-29T07:15:14;101645.51;;;17.98;36.78
39954;BME280;25631;51.516;-0.470;2022-07-29T07:17:51;101649.81;;;17.91;36.79
39954;BME280;25631;51.516;-0.470;2022-07-29T07:20:27;101653.62;;;17.98;36.83
39954;BME280;25631;51.516;-0.470;2022-07-29T07:23:03;101658.67;;;18.59;36.70
39954;BME280;25631;51.516;-0.470;2022-07-29T07:25:40;101660.65;;;18.47;36.50
39954;BME280;25631;51.516;-0.470;2022-07-29T07:28:16;101661.23;;;18.44;36.42
39954;BME280;25631;51.516;-0.470;2022-07-29T07:30:53;101662.85;;;18.45;36.25
39954;BME280;25631;51.516;-0.470;2022-07-29T07:33:29;101661.14;;;18.16;36.11
39954;BME280;25631;51.516;-0.470;2022-07-29T07:36:05;101658.14;;;18.47;36.02
39954;BME280;25631;51.516;-0.470;2022-07-29T07:38:43;101657.71;;;18.42;35.91
39954;BME280;25631;51.516;-0.470;2022-07-29T07:41:20;101655.74;;;18.21;35.74
39954;BME280;25631;51.516;-0.470;2022-07-29T07:43:57;101658.34;;;18.47;35.79
39954;BME280;25631;51.516;-0.470;2022-07-29T07:46:33;101656.67;;;18.36;35.80
39954;BME280;25631;51.516;-0.470;2022-07-29T07:49:09;101657.32;;;18.34;35.32
39954;BME280;25631;51.516;-0.470;2022-07-29T07:51:46;101654.90;;;18.28;35.09
39954;BME280;25631;51.516;-0.470;2022-07-29T07:54:23;101653.93;;;18.79;35.20
39954;BME280;25631;51.516;-0.470;2022-07-29T07:56:59;101658.01;;;18.46;34.35
39954;BME280;25631;51.516;-0.470;2022-07-29T07:59:35;101662.94;;;18.41;34.22
39954;BME280;25631;51.516;-0.470;2022-07-29T08:02:12;101665.18;;;18.62;33.76
39954;BME280;25631;51.516;-0.470;2022-07-29T08:04:48;101666.32;;;18.47;33.80
39954;BME280;25631;51.516;-0.470;2022-07-29T08:07:24;101666.43;;;18.83;33.99
39954;BME280;25631;51.516;-0.470;2022-07-29T08:10:01;101663.60;;;18.69;33.38
39954;BME280;25631;51.516;-0.470;2022-07-29T08:12:38;101661.73;;;18.63;32.64
39954;BME280;25631;51.516;-0.470;2022-07-29T08:15:14;101663.21;;;18.83;32.54
39954;BME280;25631;51.516;-0.470;2022-07-29T08:17:50;101662.16;;;18.89;32.54
39954;BME280;25631;51.516;-0.470;2022-07-29T08:20:27;101668.13;;;18.78;32.53
39954;BME280;25631;51.516;-0.470;2022-07-29T08:23:04;101672.00;;;18.95;31.97
39954;BME280;25631;51.516;-0.470;2022-07-29T08:25:41;101670.45;;;19.05;31.44
39954;BME280;25631;51.516;-0.470;2022-07-29T08:28:17;101673.51;;;19.04;31.39
39954;BME280;25631;51.516;-0.470;2022-07-29T08:30:54;101672.32;;;19.04;31.48
39954;BME280;25631;51.516;-0.470;2022-07-29T08:33:30;101672.96;;;19.17;31.16
39954;BME280;25631;51.516;-0.470;2022-07-29T08:36:07;101671.95;;;19.20;30.92
39954;BME280;25631;51.516;-0.470;2022-07-29T08:38:44;101672.59;;;19.33;30.78
39954;BME280;25631;51.516;-0.470;2022-07-29T08:41:20;101668.16;;;19.20;30.74
39954;BME280;25631;51.516;-0.470;2022-07-29T08:43:57;101669.60;;;19.23;30.63
39954;BME280;25631;51.516;-0.470;2022-07-29T08:46:33;101664.28;;;19.39;30.13
39954;BME280;25631;51.516;-0.470;2022-07-29T08:49:13;101658.85;;;19.14;30.08
39954;BME280;25631;51.516;-0.470;2022-07-29T08:51:49;101658.81;;;19.40;30.18
39954;BME280;25631;51.516;-0.470;2022-07-29T08:54:27;101652.56;;;19.41;29.67
39954;BME280;25631;51.516;-0.470;2022-07-29T08:57:04;101654.61;;;19.27;29.25
39954;BME280;25631;51.516;-0.470;2022-07-29T08:59:42;101656.62;;;19.54;29.18
39954;BME280;25631;51.516;-0.470;2022-07-29T09:02:20;101659.45;;;19.64;29.02
39954;BME280;25631;51.516;-0.470;2022-07-29T09:04:58;101660.30;;;19.51;29.36
39954;BME280;25631;51.516;-0.470;2022-07-29T09:07:36;101657.64;;;19.57;29.56
39954;BME280;25631;51.516;-0.470;2022-07-29T09:10:15;101659.12;;;19.58;29.17
39954;BME280;25631;51.516;-0.470;2022-07-29T09:12:51;101656.10;;;19.70;28.67
39954;BME280;25631;51.516;-0.470;2022-07-29T09:15:28;101655.68;;;19.86;28.35
39954;BME280;25631;51.516;-0.470;2022-07-29T09:18:04;101656.41;;;19.77;28.32
39954;BME280;25631;51.516;-0.470;2022-07-29T09:20:52;101656.95;;;19.94;28.19
39954;BME280;25631;51.516;-0.470;2022-07-29T09:23:28;101654.00;;;20.09;27.98
39954;BME280;25631;51.516;-0.470;2022-07-29T09:26:05;101653.37;;;20.18;27.87
39954;BME280;25631;51.516;-0.470;2022-07-29T09:28:42;101650.70;;;20.27;28.01
39954;BME280;25631;51.516;-0.470;2022-07-29T09:31:31;101646.23;;;20.14;27.88
39954;BME280;25631;51.516;-0.470;2022-07-29T09:34:09;101644.62;;;20.17;27.67
39954;BME280;25631;51.516;-0.470;2022-07-29T09:36:47;101646.50;;;20.35;27.08
39954;BME280;25631;51.516;-0.470;2022-07-29T09:39:30;101650.74;;;20.25;26.98
39954;BME280;25631;51.516;-0.470;2022-07-29T09:42:06;101653.39;;;20.26;26.95
39954;BME280;25631;51.516;-0.470;2022-07-29T09:44:45;101645.28;;;20.42;26.57
39954;BME280;25631;51.516;-0.470;2022-07-29T09:47:22;101645.80;;;20.70;26.64
39954;BME280;25631;51.516;-0.470;2022-07-29T09:49:59;101647.84;;;20.69;27.01
39954;BME280;25631;51.516;-0.470;2022-07-29T09:52:45;101651.08;;;20.57;26.42
39954;BME280;25631;51.516;-0.470;2022-07-29T09:55:22;101651.70;;;20.79;26.12
39954;BME280;25631;51.516;-0.470;2022-07-29T09:58:15;101650.70;;;20.56;25.60
39954;BME280;25631;51.516;-0.470;2022-07-29T10:00:54;101651.95;;;20.75;25.71
39954;BME280;25631;51.516;-0.470;2022-07-29T10:03:30;101651.38;;;20.81;25.65
39954;BME280;25631;51.516;-0.470;2022-07-29T10:06:08;101647.96;;;20.78;25.69
39954;BME280;25631;51.516;-0.470;2022-07-29T10:08:45;101648.26;;;20.91;25.95
39954;BME280;25631;51.516;-0.470;2022-07-29T10:11:22;101645.74;;;20.68;25.90
39954;BME280;25631;51.516;-0.470;2022-07-29T10:13:59;101648.78;;;21.24;25.96
39954;BME280;25631;51.516;-0.470;2022-07-29T10:16:38;101643.82;;;21.02;26.48
39954;BME280;25631;51.516;-0.470;2022-07-29T10:19:14;101640.18;;;20.92;26.21
39954;BME280;25631;51.516;-0.470;2022-07-29T10:21:51;101643.50;;;21.03;26.26
39954;BME280;25631;51.516;-0.470;2022-07-29T10:24:29;101643.84;;;21.22;26.35
39954;BME280;25631;51.516;-0.470;2022-07-29T10:27:07;101641.57;;;21.21;26.31
39954;BME280;25631;51.516;-0.470;2022-07-29T10:29:44;101639.95;;;21.29;25.76
39954;BME280;25631;51.516;-0.470;2022-07-29T10:32:31;101639.92;;;21.57;25.72
39954;BME280;25631;51.516;-0.470;2022-07-29T10:35:19;101638.11;;;21.55;25.50
39954;BME280;25631;51.516;-0.470;2022-07-29T10:38:10;101639.69;;;21.73;25.34
39954;BME280;25631;51.516;-0.470;2022-07-29T10:40:57;101637.08;;;21.65;25.46
39954;BME280;25631;51.516;-0.470;2022-07-29T10:43:40;101636.92;;;21.88;25.51
39954;BME280;25631;51.516;-0.470;2022-07-29T10:46:18;101636.01;;;22.09;25.50
39954;BME280;25631;51.516;-0.470;2022-07-29T10:49:12;101634.41;;;22.18;25.21
39954;BME280;25631;51.516;-0.470;2022-07-29T10:51:54;101630.02;;;22.34;24.98
39954;BME280;25631;51.516;-0.470;2022-07-29T10:54:42;101627.88;;;22.17;24.40
39954;BME280;25631;51.516;-0.470;2022-07-29T10:57:22;101628.14;;;22.38;24.62
39954;BME280;25631;51.516;-0.470;2022-07-29T11:00:31;101630.45;;;22.58;24.60
39954;BME280;25631;51.516;-0.470;2022-07-29T11:03:08;101632.53;;;22.40;23.81
39954;BME280;25631;51.516;-0.470;2022-07-29T11:05:54;101633.85;;;22.37;23.95
39954;BME280;25631;51.516;-0.470;2022-07-29T11:08:31;101626.86;;;22.36;24.01
39954;BME280;25631;51.516;-0.470;2022-07-29T11:11:31;101627.30;;;22.83;24.12
39954;BME280;25631;51.516;-0.470;2022-07-29T11:14:08;101629.60;;;22.80;24.06
39954;BME280;25631;51.516;-0.470;2022-07-29T11:17:16;101635.77;;;22.39;24.13
39954;BME280;25631;51.516;-0.470;2022-07-29T11:20:30;101637.42;;;22.76;24.11
39954;BME280;25631;51.516;-0.470;2022-07-29T11:23:25;101633.44;;;23.06;24.11
39954;BME280;25631;51.516;-0.470;2022-07-29T11:26:20;101638.20;;;23.24;23.97
39954;BME280;25631;51.516;-0.470;2022-07-29T11:29:01;101637.53;;;23.27;23.73
39954;BME280;25631;51.516;-0.470;2022-07-29T11:31:40;101641.31;;;23.66;23.14
39954;BME280;25631;51.516;-0.470;2022-07-29T11:34:19;101642.31;;;23.17;23.22
39954;BME280;25631;51.516;-0.470;2022-07-29T11:37:28;101636.98;;;23.61;23.21
39954;BME280;25631;51.516;-0.470;2022-07-29T11:40:11;101633.42;;;23.41;22.98
39954;BME280;25631;51.516;-0.470;2022-07-29T11:42:49;101628.83;;;24.04;22.99
39954;BME280;25631;51.516;-0.470;2022-07-29T11:45:27;101629.02;;;23.54;22.83
39954;BME280;25631;51.516;-0.470;2022-07-29T11:48:20;101627.71;;;23.78;22.61
39954;BME280;25631;51.516;-0.470;2022-07-29T11:50:58;101633.03;;;23.44;22.65
39954;BME280;25631;51.516;-0.470;2022-07-29T11:53:35;101631.43;;;23.55;22.67
39954;BME280;25631;51.516;-0.470;2022-07-29T11:56:12;101629.49;;;23.20;22.64
39954;BME280;25631;51.516;-0.470;2022-07-29T11:58:50;101628.37;;;23.68;22.68
39954;BME280;25631;51.516;-0.470;2022-07-29T12:01:27;101625.99;;;23.78;22.87
39954;BME280;25631;51.516;-0.470;2022-07-29T12:04:04;101624.63;;;23.84;23.12
39954;BME280;25631;51.516;-0.470;2022-07-29T12:06:40;101630.44;;;24.17;22.62
39954;BME280;25631;51.516;-0.470;2022-07-29T12:09:17;101626.58;;;24.25;22.76
39954;BME280;25631;51.516;-0.470;2022-07-29T12:11:57;101625.94;;;24.31;22.37
39954;BME280;25631;51.516;-0.470;2022-07-29T12:14:34;101628.13;;;24.79;21.95
39954;BME280;25631;51.516;-0.470;2022-07-29T12:17:25;101629.56;;;24.65;21.72
39954;BME280;25631;51.516;-0.470;2022-07-29T12:20:03;101627.23;;;25.02;21.45
39954;BME280;25631;51.516;-0.470;2022-07-29T12:22:41;101619.57;;;24.98;21.21
39954;BME280;25631;51.516;-0.470;2022-07-29T12:25:17;101621.07;;;24.98;21.26
39954;BME280;25631;51.516;-0.470;2022-07-29T12:27:59;101613.08;;;24.95;21.19
39954;BME280;25631;51.516;-0.470;2022-07-29T12:30:40;101615.84;;;25.24;21.29
39954;BME280;25631;51.516;-0.470;2022-07-29T12:33:19;101613.95;;;25.26;21.06
39954;BME280;25631;51.516;-0.470;2022-07-29T12:35:57;101610.74;;;25.61;21.04
39954;BME280;25631;51.516;-0.470;2022-07-29T12:38:34;101608.23;;;25.71;20.95
39954;BME280;25631;51.516;-0.470;2022-07-29T12:41:11;101611.39;;;25.68;20.89
39954;BME280;25631;51.516;-0.470;2022-07-29T12:43:52;101606.48;;;25.77;20.79
39954;BME280;25631;51.516;-0.470;2022-07-29T12:46:29;101602.93;;;25.54;20.31
39954;BME280;25631;51.516;-0.470;2022-07-29T12:49:06;101601.60;;;25.68;20.31
39954;BME280;25631;51.516;-0.470;2022-07-29T12:51:42;101604.23;;;25.54;20.44
39954;BME280;25631;51.516;-0.470;2022-07-29T12:54:19;101604.40;;;25.51;20.39
39954;BME280;25631;51.516;-0.470;2022-07-29T12:56:58;101604.83;;;25.40;20.61
39954;BME280;25631;51.516;-0.470;2022-07-29T12:59:35;101606.27;;;25.48;20.77
39954;BME280;25631;51.516;-0.470;2022-07-29T13:02:21;101601.66;;;25.59;20.77
39954;BME280;25631;51.516;-0.470;2022-07-29T13:04:59;101599.10;;;25.60;20.80
39954;BME280;25631;51.516;-0.470;2022-07-29T13:07:36;101601.81;;;25.54;21.01
39954;BME280;25631;51.516;-0.470;2022-07-29T13:10:15;101603.13;;;25.35;21.02
39954;BME280;25631;51.516;-0.470;2022-07-29T13:13:08;101609.00;;;25.34;21.18
39954;BME280;25631;51.516;-0.470;2022-07-29T13:15:45;101606.28;;;25.10;20.67
39954;BME280;25631;51.516;-0.470;2022-07-29T13:18:30;101607.19;;;25.17;21.15
39954;BME280;25631;51.516;-0.470;2022-07-29T13:21:11;101602.62;;;25.35;20.90
39954;BME280;25631;51.516;-0.470;2022-07-29T13:23:49;101601.72;;;25.28;20.90
39954;BME280;25631;51.516;-0.470;2022-07-29T13:26:25;101601.35;;;25.77;20.81
39954;BME280;25631;51.516;-0.470;2022-07-29T13:29:03;101598.22;;;25.73;20.36
39954;BME280;25631;51.516;-0.470;2022-07-29T13:31:39;101593.50;;;25.95;20.24
39954;BME280;25631;51.516;-0.470;2022-07-29T13:34:16;101595.04;;;26.06;20.07
39954;BME280;25631;51.516;-0.470;2022-07-29T13:36:52;101591.26;;;26.45;19.92
39954;BME280;25631;51.516;-0.470;2022-07-29T13:39:28;101588.60;;;26.61;19.64
39954;BME280;25631;51.516;-0.470;2022-07-29T13:42:06;101590.37;;;26.77;19.46